Latest Weather Observations for Holsworthy (Defence)

IDN60901

Issued at 9:21 pm EST Tuesday 24 May 2022 (issued every 10 minutes, with the page automatically refreshed every 10 minutes)

About weather observations | Map of Sydney area stations | Latest observations for Sydney area | Other Formats
Station Details ID: 068263 Name: HOLSWORTHY DEFENCE AWS Lat: -34.08 Lon: 150.90 Height: 165.0 m
Data from the previous 72 hours. | See also: Recent months at Holsworthy (Defence)
Date/Time
EST
Temp
°C
App
Temp
°C
Dew
Point
°C
Rel
Hum
%
Delta-T
°C
Wind Press
QNH
hPa
Press
MSL
hPa
Rain since
9am
mm
Dir  Spd
km/h
Gust
km/h
Spd
kts
Gust
kts
24/09:00pm 12.3 12.4 11.5 95 0.4 S 2 4 1 2 - - 0.8
24/08:30pm 12.8 12.7 12.0 95 0.4 SSE 4 7 2 4 - - 0.8
24/08:00pm 13.0 13.3 12.2 95 0.4 S 2 4 1 2 - - 0.8
24/07:30pm 12.8 13.3 11.7 93 0.6 CALM 0 0 0 0 - - 0.8
24/07:00pm 13.0 13.3 12.1 94 0.5 ENE 2 4 1 2 - - 0.8
24/06:30pm 12.6 12.6 11.3 92 0.7 SSE 2 6 1 3 - - 0.8
24/06:00pm 12.5 12.9 11.2 92 0.7 CALM 0 0 0 0 - - 0.8
24/05:30pm 12.7 12.2 10.9 89 0.9 SSE 4 6 2 3 - - 0.8
24/05:00pm 14.3 13.8 10.7 79 1.9 ESE 4 6 2 3 - - 0.8
24/04:30pm 15.6 15.1 10.6 72 2.7 ESE 4 6 2 3 - - 0.8
24/04:00pm 16.8 16.4 11.1 69 3.1 SE 4 7 2 4 - - 0.8
24/03:30pm 16.2 15.3 10.7 70 2.9 SE 6 13 3 7 - - 0.8
24/03:00pm 16.5 16.5 12.5 77 2.2 S 4 7 2 4 - - 0.8
24/02:30pm 16.1 15.6 12.5 79 2.0 SSE 7 13 4 7 - - 0.8
24/02:00pm 15.6 15.2 12.9 84 1.5 SSE 7 13 4 7 - - 0.8
24/01:30pm 14.6 14.3 12.8 89 1.0 SSE 6 9 3 5 - - 0.8
24/01:00pm 15.1 12.7 11.5 79 1.9 SSE 15 24 8 13 - - 0.6
24/12:30pm 16.0 16.3 13.5 85 1.4 SE 4 6 2 3 - - 0.6
24/12:00pm 15.4 15.2 12.9 85 1.4 SE 6 9 3 5 - - 0.6
24/11:30am 14.7 14.6 13.2 91 0.8 S 6 7 3 4 - - 0.6
24/11:00am 14.7 13.4 12.4 86 1.3 SE 11 19 6 10 - - 0.2
24/10:30am 15.8 16.1 13.5 86 1.3 SW 4 13 2 7 - - 0.0
24/10:00am 14.6 15.0 13.8 95 0.5 SW 4 7 2 4 - - 0.0
24/09:30am 13.0 13.8 12.5 97 0.3 CALM 0 0 0 0 - - 0.0
24/09:00am 12.3 12.1 11.8 97 0.3 SSW 4 6 2 3 - - 5.0
24/08:30am 12.1 11.8 11.6 97 0.3 SW 4 7 2 4 - - 5.0
24/08:00am 11.9 12.3 11.4 97 0.3 CALM 0 2 0 1 - - 5.0
24/07:30am 11.6 11.2 11.1 97 0.3 SSW 4 6 2 3 - - 5.0
24/07:00am 11.5 11.5 11.0 97 0.3 SSW 2 6 1 3 - - 4.6
24/06:30am 11.5 11.5 11.0 97 0.3 SW 2 4 1 2 - - 4.4
24/06:00am 11.4 10.9 10.9 97 0.3 WSW 4 4 2 2 - - 4.4
24/05:30am 11.4 11.3 10.9 97 0.3 WSW 2 4 1 2 - - 4.4
24/05:00am 11.4 11.3 10.9 97 0.3 WNW 2 4 1 2 - - 4.4
24/04:30am 11.4 10.9 10.9 97 0.3 N 4 7 2 4 - - 4.4
24/04:00am 11.6 11.2 11.1 97 0.3 N 4 9 2 5 - - 4.4
24/03:30am 11.5 11.8 11.0 97 0.3 CALM 0 0 0 0 - - 4.4
24/03:00am 11.6 11.6 11.1 97 0.3 NNW 2 4 1 2 - - 4.4
24/02:30am 11.8 11.8 11.3 97 0.3 S 2 6 1 3 - - 4.2
24/02:00am 11.9 12.3 11.4 97 0.3 CALM 0 0 0 0 - - 4.0
24/01:30am 11.7 10.9 11.2 97 0.3 SSW 6 6 3 3 - - 4.0
24/01:00am 11.4 10.9 10.9 97 0.3 SSW 4 6 2 3 - - 3.8
24/12:30am 11.2 10.7 10.7 97 0.3 SW 4 6 2 3 - - 3.8
24/12:00am 11.0 10.4 10.4 96 0.3 SSW 4 6 2 3 - - 3.8
 
Date/Time
EST
Temp
°C
App
Temp
°C
Dew
Point
°C
Rel
Hum
%
Delta-T
°C
Wind Press
QNH
hPa
Press
MSL
hPa
Rain since
9am
mm
Dir  Spd
km/h
Gust
km/h
Spd
kts
Gust
kts
23/11:30pm 11.2 10.6 10.4 95 0.4 SSW 4 6 2 3 - - 3.8
23/11:00pm 11.6 11.1 10.8 95 0.4 SSW 4 4 2 2 - - 3.8
23/10:30pm 12.2 11.9 11.4 95 0.4 SSW 4 7 2 4 - - 3.8
23/10:00pm 12.3 11.6 11.5 95 0.4 SW 6 6 3 3 - - 3.6
23/09:30pm 12.3 12.0 11.4 94 0.5 SSW 4 6 2 3 - - 3.6
23/09:00pm 12.6 11.9 11.5 93 0.6 SSE 6 7 3 4 - - 3.6
23/08:30pm 12.5 11.7 11.2 92 0.7 SSE 6 9 3 5 - - 3.6
23/08:00pm 12.5 11.6 11.4 93 0.6 SSE 7 9 4 5 - - 3.6
23/07:30pm 12.4 11.5 11.5 94 0.5 SE 7 13 4 7 - - 3.6
23/07:00pm 12.6 12.4 11.7 94 0.5 SSE 4 6 2 3 - - 3.6
23/06:30pm 12.7 12.4 11.6 93 0.6 SSE 4 6 2 3 - - 3.6
23/06:00pm 12.9 12.6 11.6 92 0.7 SSE 4 6 2 3 - - 3.6
23/05:30pm 13.0 12.1 11.2 89 1.0 ESE 7 13 4 7 - - 3.6
23/05:00pm 13.1 12.5 11.7 91 0.8 SE 6 7 3 4 - - 3.6
23/04:30pm 13.3 12.8 12.2 93 0.6 SE 6 7 3 4 - - 3.4
23/04:00pm 13.4 12.7 12.1 92 0.7 SSE 7 13 4 7 - - 3.4
23/03:30pm 14.0 13.4 12.4 90 0.9 SE 7 13 4 7 - - 3.4
23/03:00pm 14.2 13.6 12.4 89 1.0 ESE 7 11 4 6 - - 3.4
23/02:30pm 14.4 13.9 12.6 89 1.0 E 7 15 4 8 - - 3.4
23/02:00pm 14.3 13.9 12.9 91 0.8 SSE 7 11 4 6 - - 3.4
23/01:30pm 13.9 13.1 12.8 93 0.6 SE 9 17 5 9 - - 3.4
23/01:00pm 13.7 12.6 11.9 89 1.0 SSE 9 15 5 8 - - 2.8
23/12:30pm 13.6 12.6 12.3 92 0.7 SSE 9 15 5 8 - - 2.4
23/12:00pm 14.6 12.9 12.3 86 1.3 ESE 13 22 7 12 - - 0.6
23/11:30am 16.6 15.8 12.9 79 2.1 E 9 19 5 10 - - 0.0
23/11:00am 17.6 17.1 12.7 73 2.8 SSE 7 17 4 9 - - 0.0
23/10:30am 17.6 16.7 12.7 73 2.8 SSE 9 19 5 10 - - 0.0
23/10:00am 16.5 16.0 12.7 78 2.1 SSW 7 15 4 8 - - 0.0
23/09:30am 16.1 15.8 12.7 80 1.9 SSW 6 13 3 7 - - 0.0
23/09:00am 13.9 13.0 11.2 84 1.4 SSW 7 9 4 5 - - 3.0
23/08:30am 12.6 11.6 11.0 90 0.8 SW 7 13 4 7 - - 3.0
23/08:00am 11.7 11.2 10.8 94 0.5 SW 4 7 2 4 - - 3.0
23/07:30am 11.3 10.4 10.7 96 0.3 SSW 6 7 3 4 - - 3.0
23/07:00am 11.1 10.5 10.5 96 0.3 SW 4 7 2 4 - - 3.0
23/06:30am 11.0 10.0 10.4 96 0.3 SSW 6 9 3 5 - - 3.0
23/06:00am 11.0 10.8 10.5 97 0.3 SW 2 4 1 2 - - 3.0
23/05:30am 11.0 10.4 10.5 97 0.3 W 4 6 2 3 - - 3.0
23/05:00am 10.8 10.6 10.3 97 0.3 NW 2 7 1 4 - - 3.0
23/04:30am 10.8 10.1 10.2 96 0.3 N 4 6 2 3 - - 3.0
23/04:00am 10.8 10.1 10.2 96 0.3 NNE 4 7 2 4 - - 3.0
23/03:30am 10.9 11.0 10.3 96 0.3 CALM 0 0 0 0 - - 3.0
23/03:00am 11.0 10.4 10.4 96 0.3 SW 4 6 2 3 - - 3.0
23/02:30am 11.3 11.5 10.7 96 0.3 CALM 0 6 0 3 - - 3.0
23/02:00am 11.2 11.4 10.6 96 0.3 CALM 0 0 0 0 - - 3.0
23/01:30am 11.3 11.2 10.7 96 0.3 WSW 2 4 1 2 - - 3.0
23/01:00am 11.3 11.5 10.5 95 0.4 CALM 0 0 0 0 - - 3.0
23/12:30am 11.2 11.3 10.3 94 0.5 CALM 0 0 0 0 - - 3.0
23/12:00am 11.8 11.3 10.7 93 0.6 ESE 4 7 2 4 - - 3.0
 
Date/Time
EST
Temp
°C
App
Temp
°C
Dew
Point
°C
Rel
Hum
%
Delta-T
°C
Wind Press
QNH
hPa
Press
MSL
hPa
Rain since
9am
mm
Dir  Spd
km/h
Gust
km/h
Spd
kts
Gust
kts
22/11:30pm 11.9 11.0 10.8 93 0.6 SSE 6 9 3 5 - - 3.0
22/11:00pm 11.9 11.4 10.8 93 0.6 S 4 6 2 3 - - 2.8
22/10:30pm 11.9 10.9 11.0 94 0.5 SSE 7 11 4 6 - - 2.8
22/10:00pm 12.0 11.0 10.9 93 0.6 SSE 7 11 4 6 - - 2.8
22/09:30pm 12.3 10.5 11.0 92 0.7 SSE 11 17 6 9 - - 1.8
22/09:00pm 12.6 10.5 11.2 91 0.7 SSE 13 28 7 15 - - 1.4
22/08:30pm 12.6 10.0 10.7 88 1.0 SSE 15 26 8 14 - - 1.0
22/08:00pm 12.6 10.4 10.8 89 0.9 SE 13 22 7 12 - - 0.8
22/07:30pm 12.6 10.5 11.0 90 0.8 SSE 13 24 7 13 - - 0.8
22/07:00pm 13.1 12.4 11.3 89 1.0 SSE 6 13 3 7 - - 0.0
22/06:30pm 13.5 12.6 11.4 87 1.1 SSE 7 13 4 7 - - 0.0
22/06:00pm 13.6 12.6 11.0 84 1.4 SSE 7 11 4 6 - - 0.0
22/05:30pm 13.6 12.3 11.1 85 1.3 SSE 9 15 5 8 - - 0.0
22/05:00pm 14.0 11.9 11.3 84 1.4 SSE 13 24 7 13 - - 0.0
22/04:30pm 14.4 12.8 11.6 83 1.5 S 11 20 6 11 - - 0.0
22/04:00pm 14.9 13.9 12.2 84 1.5 S 9 17 5 9 - - 0.0
22/03:30pm 15.5 14.4 12.1 80 1.9 S 9 19 5 10 - - 0.0
22/03:00pm 15.8 14.7 11.8 77 2.2 SSE 9 17 5 9 - - 0.0
22/02:30pm 16.1 14.7 12.1 77 2.2 SSE 11 24 6 13 - - 0.0
22/02:00pm 16.5 15.6 12.5 77 2.2 SSE 9 17 5 9 - - 0.0
22/01:30pm 16.6 14.8 12.0 74 2.5 SE 13 22 7 12 - - 0.0
22/01:00pm 17.0 15.6 12.1 73 2.7 SSE 11 24 6 13 - - 0.0
22/12:30pm 17.2 15.9 12.5 74 2.6 SSE 11 22 6 12 - - 0.0
22/12:00pm 17.1 15.3 12.0 72 2.8 SE 13 26 7 14 - - 0.0
22/11:30am 17.6 16.1 13.1 75 2.5 SSE 13 24 7 13 - - 0.0
22/11:00am 17.1 15.4 12.4 74 2.6 SSE 13 28 7 15 - - 0.0
22/10:30am 17.0 15.3 12.5 75 2.5 SSE 13 24 7 13 - - 0.0
22/10:00am 16.6 15.3 12.6 77 2.2 SSE 11 22 6 12 - - 0.0
22/09:30am 16.4 15.1 12.6 78 2.1 SSE 11 20 6 11 - - 0.0
22/09:00am 15.6 14.6 12.4 81 1.8 SSE 9 19 5 10 - - 9.4
22/08:30am 14.8 13.9 12.7 87 1.2 SSE 9 19 5 10 - - 9.4
22/08:00am 13.6 12.2 12.3 92 0.7 SSE 11 17 6 9 - - 9.4
22/07:30am 12.8 11.7 11.9 94 0.5 SSE 9 15 5 8 - - 9.4
22/07:00am 12.6 11.5 11.8 95 0.4 SSE 9 15 5 8 - - 9.4
22/06:30am 12.7 11.6 12.1 96 0.3 SSE 9 13 5 7 - - 9.4
22/06:00am 12.7 12.0 12.1 96 0.3 SSE 7 11 4 6 - - 9.4
22/05:30am 12.5 11.8 11.9 96 0.3 SSE 7 11 4 6 - - 9.4
22/05:00am 12.5 11.8 11.9 96 0.3 SSE 7 9 4 5 - - 9.4
22/04:30am 12.6 12.1 12.0 96 0.3 SSE 6 9 3 5 - - 9.4
22/04:00am 12.4 11.8 11.8 96 0.3 SSE 6 9 3 5 - - 9.4
22/03:30am 12.6 11.9 12.1 97 0.3 SSE 7 9 4 5 - - 9.4
22/03:00am 12.6 11.9 12.1 97 0.3 SSE 7 11 4 6 - - 9.4
22/02:30am 12.6 11.9 12.1 97 0.3 SSE 7 11 4 6 - - 9.4
22/02:00am 12.6 12.1 12.0 96 0.3 SSE 6 6 3 3 - - 9.2
22/01:30am 12.9 12.9 12.3 96 0.3 SSW 4 6 2 3 - - 9.2
22/01:00am 13.0 12.6 12.5 97 0.3 S 6 9 3 5 - - 9.0
22/12:30am 13.1 12.8 12.6 97 0.3 SSE 6 9 3 5 - - 9.0
22/12:00am 12.8 12.7 12.2 96 0.3 S 4 6 2 3 - - 8.8
 
Date/Time
EST
Temp
°C
App
Temp
°C
Dew
Point
°C
Rel
Hum
%
Delta-T
°C
Wind Press
QNH
hPa
Press
MSL
hPa
Rain since
9am
mm
Dir  Spd
km/h
Gust
km/h
Spd
kts
Gust
kts
21/11:30pm 12.9 12.5 12.3 96 0.3 S 6 7 3 4 - - 8.8
21/11:00pm 13.0 12.6 12.4 96 0.3 SSW 6 9 3 5 - - 8.8
21/10:30pm 13.2 13.3 12.7 97 0.3 SW 4 7 2 4 - - 8.4
21/10:00pm 13.1 13.2 12.6 97 0.3 SSW 4 7 2 4 - - 8.2
21/09:30pm 13.1 13.5 12.5 96 0.3 S 2 6 1 3 - - 8.0

Latest Capital City Observations: Canberra | Sydney | Melbourne | Brisbane | Adelaide | Perth | Hobart | Darwin

Other formats

Comma delimited format used in spreadsheet applications
http://www.bom.gov.au/fwo/IDN60901/IDN60901.95684.axf

JavaScript Object Notation format (JSON) in row-major order
http://www.bom.gov.au/fwo/IDN60901/IDN60901.95684.json

Data quality

Most of these data are generated automatically and are frequently updated. Quality checks on data are not normally performed. It is possible for incorrect values to appear. Refer to information at About Latest Weather Observations and please check the disclaimer before using these data.